Pagrindinis puslapis
METAR-TAF:

METAR-TAF

Oro uostai :

Kartachena, Kolumbija

platuma: 10-27N, ilguma: 075-31W, Aukštis: 1 m

Dabartinis oras

Ataskaita buvo paskelbta 32 minutes, ne 00:00 UTC
Vėjas 7 kt iš Rytų/Šiaurės Rytų, svyruoja nuo Šiaurės ir Rytų/Šiaurės Rytų
Temperatūra 29°C
Drėgmė 70%
Slėgis 1009 hPa
Matomumas 10 km arba daugiau
Mažai debesys ne aukštis 1700 ft

METAR: SKCG 220000Z 06007KT 350V070 9999 FEW017 29/23 Q1009 RMK A2979

Laikas: 19:32 (00:32 UTC)

Prognozė

Prognozė galioja nuo 22 metu 00 UTC su 22 metu 24 UTC
Vėjas 6 kt iš Šiaurės/Šiaurės Rytų
Matomumas 10 km arba daugiau
Mažai debesys ne aukštis 1700 ft
Laikinai
nuo 22 metu 17 UTC su 22 metu 20 UTC
Išsisklaidę debesys ne aukštis 1500 ft, aukštai iškilę kamuoliniai debesys.
dulksna, lietus
Tapsmas
nuo 22 metu 21 UTC su 22 metu 24 UTC
Vėjas 15 kt iš Šiaurės
Išsisklaidę debesys ne aukštis 2000 ft

TAF: SKCG 2200/2224 02006KT 9999 FEW017 TEMPO 2217/2220 DZRA SCT015TCU BECMG 2221/2224 35015KT SCT020 TX31/2218Z TN25/2211Z

Orai ataskaitas ir orų prognozės (METAR, TAF).

turimą stotys yra geltonos ir raudonos taškus žemėlapyje.

Perkelti pele per norėdami pamatyti stoties vardą.

Tada spustelėkite, norėdami matyti oro stebėjimo ir prognozės.

Norėdami pakeisti žemėlapį: spustelėkite ant žalios mygtukų su juodo kryžiaus žemyn,; žalią mygtuką su brūkšneliu, jei norite nutolinti; arba žalių rodyklių gretimoms žemėlapius.


METAR-TAF: